Artondale, Washington
Current Conditions -  °F | °C
As of 1:53 AM on Monday 20 Oct 2014 (Local Time) from KTIW Reporting Station
Light Rain Light Rain  
Wind Chill: 58°   Ceiling: 7500
Heat Index: 58°   Visibility: 6mi
Dew Point: 56°   Wind: 3mph
Humidity: 93%   Direction: 110°ESE
Pressure: 29.72"   Gusts: NA
Location:  47.2986°N, 122.616°W
Report Text: KTIW 200853Z AUTO 11003KT 6SM -RA BR SCT050 OVC075 14/13 A2972 RMK AO2 RAB08 SLP062 P0004 60004 T01440133 53005
Loading
Personal Weather Stations






























Interactive Weather Map
Tropical Storm Tracking
New forecast layout! Learn more

10-Day Weather Forecast

Advertisements
Track Severe Weather on mobile